createdAt,value
2023-01-19T00:00:58.510Z,8.53
2023-01-19T00:03:25.491Z,17.33
2023-01-19T00:05:52.727Z,14.90
2023-01-19T00:08:21.046Z,10.47
2023-01-19T00:10:51.221Z,15.03
2023-01-19T00:13:18.394Z,20.10
2023-01-19T00:15:45.474Z,12.83
2023-01-19T00:18:12.391Z,14.33
2023-01-19T00:20:39.596Z,13.60
2023-01-19T00:23:08.183Z,13.57
2023-01-19T00:25:42.497Z,16.23
2023-01-19T00:28:10.183Z,11.80
2023-01-19T00:30:37.527Z,16.00
2023-01-19T00:33:04.544Z,14.57
2023-01-19T00:35:31.527Z,19.57
2023-01-19T00:37:59.076Z,16.20
2023-01-19T00:40:25.981Z,20.37
2023-01-19T00:42:54.226Z,21.93
2023-01-19T00:45:23.546Z,14.00
2023-01-19T00:47:57.405Z,19.40
2023-01-19T00:52:53.157Z,18.30
2023-01-19T00:55:20.128Z,13.87
2023-01-19T00:57:47.085Z,17.53
2023-01-19T01:00:17.276Z,19.30
2023-01-19T01:02:44.876Z,16.83
2023-01-19T01:05:12.554Z,15.17
2023-01-19T01:07:45.295Z,19.33
2023-01-19T01:10:14.351Z,10.73
2023-01-19T01:12:41.953Z,11.30
2023-01-19T01:15:27.037Z,15.40
2023-01-19T01:17:53.974Z,12.00
2023-01-19T01:20:23.227Z,26.67
2023-01-19T01:22:52.058Z,18.23
2023-01-19T01:25:22.728Z,16.53
2023-01-19T01:27:50.349Z,13.13
2023-01-19T01:30:17.459Z,15.40
2023-01-19T01:32:45.743Z,14.10
2023-01-19T01:35:13.541Z,14.07
2023-01-19T01:37:41.083Z,15.90
2023-01-19T01:40:10.410Z,16.73
2023-01-19T01:42:37.278Z,15.33
2023-01-19T01:45:07.722Z,16.70
2023-01-19T01:47:40.317Z,15.03
2023-01-19T01:50:15.984Z,19.80
2023-01-19T01:53:07.480Z,13.20
2023-01-19T01:55:37.493Z,13.37
2023-01-19T01:58:05.896Z,10.27
2023-01-19T02:00:52.956Z,12.20
2023-01-19T02:03:21.231Z,14.77
2023-01-19T02:05:50.162Z,20.77
2023-01-19T02:08:43.871Z,32.20
2023-01-19T02:11:30.143Z,9.35
2023-01-19T02:13:57.307Z,15.27
2023-01-19T02:16:24.573Z,27.07
2023-01-19T02:18:51.485Z,12.77
2023-01-19T02:21:24.023Z,14.43
2023-01-19T02:23:54.498Z,27.73
2023-01-19T02:26:23.862Z,12.37
2023-01-19T02:28:57.453Z,19.27
2023-01-19T02:31:25.324Z,13.60
2023-01-19T02:33:52.993Z,11.83
2023-01-19T02:36:26.339Z,13.20
2023-01-19T02:38:57.950Z,15.52
2023-01-19T02:41:29.092Z,13.10
2023-01-19T02:43:58.658Z,14.30
2023-01-19T02:46:26.000Z,11.27
2023-01-19T02:48:52.820Z,9.53
2023-01-19T02:51:23.085Z,13.43
2023-01-19T02:54:18.536Z,8.60
2023-01-19T02:56:55.799Z,10.53
2023-01-19T02:59:48.335Z,7.60
2023-01-19T03:02:27.387Z,6.50
2023-01-19T03:05:05.029Z,8.33
2023-01-19T03:07:47.624Z,19.17
2023-01-19T03:10:21.086Z,12.87
2023-01-19T03:12:53.627Z,11.48
2023-01-19T03:15:23.827Z,5.70
2023-01-19T03:17:53.166Z,9.67
2023-01-19T03:20:23.966Z,8.47
2023-01-19T03:22:55.917Z,16.50
2023-01-19T03:25:24.902Z,8.70
2023-01-19T03:27:54.826Z,8.23
2023-01-19T03:30:25.883Z,12.83
2023-01-19T03:32:55.470Z,6.70
2023-01-19T03:35:25.398Z,8.87
2023-01-19T03:37:56.128Z,12.40
2023-01-19T03:40:26.636Z,7.27
2023-01-19T03:42:54.022Z,9.33
2023-01-19T03:45:22.704Z,13.53
2023-01-19T03:47:49.849Z,11.87
2023-01-19T03:50:24.688Z,7.77
2023-01-19T03:53:01.509Z,15.20
2023-01-19T03:55:29.908Z,8.60
2023-01-19T03:57:56.751Z,23.80
2023-01-19T04:00:24.230Z,10.30
2023-01-19T04:02:51.197Z,6.13
2023-01-19T04:05:19.342Z,16.27
2023-01-19T04:07:48.700Z,9.10
2023-01-19T04:10:16.659Z,10.77
2023-01-19T04:12:45.065Z,10.70
2023-01-19T04:15:12.256Z,8.87
2023-01-19T04:17:39.532Z,12.63
2023-01-19T04:20:07.303Z,11.10
2023-01-19T04:22:34.454Z,24.63
2023-01-19T04:25:01.409Z,27.53
2023-01-19T04:27:29.065Z,20.03
2023-01-19T04:29:57.285Z,19.07
2023-01-19T04:32:24.576Z,13.10
2023-01-19T04:34:51.745Z,16.27
2023-01-19T04:37:18.696Z,16.63
2023-01-19T04:39:45.575Z,13.20
2023-01-19T04:42:13.079Z,18.73
2023-01-19T04:44:39.951Z,14.93
2023-01-19T04:47:08.258Z,19.27
2023-01-19T04:49:37.733Z,18.07
2023-01-19T04:52:04.923Z,13.10
2023-01-19T04:54:31.862Z,13.77
2023-01-19T04:56:58.857Z,17.33
2023-01-19T04:59:25.761Z,17.13
2023-01-19T05:01:52.695Z,13.57
2023-01-19T05:04:22.453Z,26.67
2023-01-19T05:06:49.476Z,14.23
2023-01-19T05:09:16.367Z,12.37
2023-01-19T05:11:43.225Z,21.87
2023-01-19T05:14:10.110Z,20.07
2023-01-19T05:16:36.937Z,16.93
2023-01-19T05:19:04.007Z,13.53
2023-01-19T05:21:32.218Z,17.90
2023-01-19T05:23:59.279Z,14.83
2023-01-19T05:26:26.259Z,12.53
2023-01-19T05:28:53.099Z,12.23
2023-01-19T05:31:20.021Z,12.47
2023-01-19T05:33:46.989Z,19.50
2023-01-19T05:36:13.842Z,18.23
2023-01-19T05:38:42.044Z,19.87
2023-01-19T05:41:08.924Z,14.77
2023-01-19T05:43:35.929Z,23.03
2023-01-19T05:46:04.614Z,28.17
2023-01-19T05:48:31.750Z,15.83
2023-01-19T05:50:59.261Z,18.33
2023-01-19T05:53:26.625Z,13.17
2023-01-19T05:55:59.889Z,19.80
2023-01-19T05:58:26.806Z,24.30
2023-01-19T06:00:53.719Z,14.33
2023-01-19T06:03:20.621Z,22.73
2023-01-19T06:05:47.615Z,15.00
2023-01-19T06:08:14.636Z,19.40
2023-01-19T06:10:41.663Z,20.73
2023-01-19T06:13:11.230Z,30.83
2023-01-19T06:15:38.374Z,33.97
2023-01-19T06:18:05.490Z,25.40
2023-01-19T06:20:32.471Z,22.57
2023-01-19T06:22:59.739Z,22.10
2023-01-19T06:25:26.827Z,26.13
2023-01-19T06:27:53.838Z,23.83
2023-01-19T06:30:22.264Z,29.30
2023-01-19T06:32:49.173Z,24.67
2023-01-19T06:35:16.113Z,29.83
2023-01-19T06:37:43.054Z,33.07
2023-01-19T06:40:13.631Z,31.27
2023-01-19T06:42:41.260Z,23.40
2023-01-19T06:45:10.194Z,22.20
2023-01-19T06:47:38.492Z,24.00
2023-01-19T06:50:06.263Z,16.63
2023-01-19T06:52:33.164Z,28.40
2023-01-19T06:55:00.151Z,26.50
2023-01-19T06:57:27.114Z,24.17
2023-01-19T06:59:53.970Z,33.27
2023-01-19T07:02:27.518Z,27.33
2023-01-19T07:04:56.877Z,26.87
2023-01-19T07:07:23.785Z,23.83
2023-01-19T07:09:51.522Z,28.63
2023-01-19T07:12:21.098Z,23.37
2023-01-19T07:14:49.534Z,21.97
2023-01-19T07:17:16.528Z,24.70
2023-01-19T07:19:43.473Z,23.40
2023-01-19T07:22:11.686Z,22.87
2023-01-19T07:24:38.546Z,24.40
2023-01-19T07:27:05.596Z,21.93
2023-01-19T07:29:32.737Z,13.20
2023-01-19T07:31:59.655Z,15.77
2023-01-19T07:34:26.540Z,12.67
2023-01-19T07:36:53.379Z,12.07
2023-01-19T07:39:21.885Z,11.83
2023-01-19T07:41:48.877Z,24.10
2023-01-19T07:44:16.169Z,13.57
2023-01-19T07:46:43.506Z,23.17
2023-01-19T07:49:10.695Z,17.20
2023-01-19T07:51:37.602Z,39.10
2023-01-19T07:54:04.766Z,26.70
2023-01-19T07:56:33.918Z,21.13
2023-01-19T07:59:01.199Z,16.90
2023-01-19T08:01:28.095Z,22.13
2023-01-19T08:03:55.051Z,20.37
2023-01-19T08:06:23.863Z,28.23
2023-01-19T08:08:51.115Z,27.90
2023-01-19T08:11:17.972Z,19.80
2023-01-19T08:13:46.310Z,22.27
2023-01-19T08:16:13.170Z,16.47
2023-01-19T08:18:40.044Z,21.37
2023-01-19T08:21:06.914Z,16.40
2023-01-19T08:23:33.833Z,19.30
2023-01-19T08:26:00.731Z,18.77
2023-01-19T08:28:27.706Z,25.07
2023-01-19T08:30:56.088Z,20.67
2023-01-19T08:33:24.257Z,24.83
2023-01-19T08:35:53.338Z,18.73
2023-01-19T08:38:20.335Z,19.93
2023-01-19T08:40:47.239Z,21.23
2023-01-19T08:43:15.804Z,32.07
2023-01-19T08:45:48.260Z,53.93
2023-01-19T08:48:18.708Z,39.43
2023-01-19T08:50:47.539Z,47.53
2023-01-19T08:53:14.657Z,45.93
2023-01-19T08:55:41.949Z,33.23
2023-01-19T08:58:09.703Z,36.33
2023-01-19T09:00:38.383Z,32.40
2023-01-19T09:03:06.525Z,35.97
2023-01-19T09:05:39.045Z,40.43
2023-01-19T09:08:11.119Z,33.50
2023-01-19T09:10:39.183Z,26.77
2023-01-19T09:13:08.568Z,31.90
2023-01-19T09:15:37.765Z,17.20
2023-01-19T09:18:07.322Z,21.03
2023-01-19T09:20:38.702Z,14.60
2023-01-19T09:23:06.187Z,29.27
2023-01-19T09:25:33.099Z,33.20
2023-01-19T09:28:00.756Z,27.50
2023-01-19T09:30:28.175Z,21.57
2023-01-19T09:32:55.099Z,21.57
2023-01-19T09:35:22.039Z,25.37
2023-01-19T09:37:50.324Z,34.53
2023-01-19T09:40:19.509Z,35.73
2023-01-19T09:42:53.452Z,23.17
2023-01-19T09:47:52.344Z,16.70
2023-01-19T09:50:25.221Z,18.63
2023-01-19T09:52:57.523Z,26.47
2023-01-19T09:55:27.172Z,21.27
2023-01-19T09:57:54.617Z,18.30
2023-01-19T10:00:23.516Z,16.17
2023-01-19T10:02:55.978Z,22.03
2023-01-19T10:05:30.871Z,17.90
2023-01-19T10:08:13.444Z,24.47
2023-01-19T10:10:45.407Z,17.17
2023-01-19T10:13:29.872Z,28.43
2023-01-19T10:16:05.124Z,28.33
2023-01-19T10:18:45.948Z,27.93
2023-01-19T10:21:17.519Z,46.60
2023-01-19T10:23:49.467Z,25.77
2023-01-19T10:26:20.293Z,22.20
2023-01-19T10:28:49.293Z,24.10
2023-01-19T10:31:19.228Z,21.27
2023-01-19T10:33:46.216Z,24.57
2023-01-19T10:36:18.861Z,30.93
2023-01-19T10:38:47.672Z,20.73
2023-01-19T10:41:19.577Z,27.60
2023-01-19T10:43:47.217Z,27.60
2023-01-19T10:46:35.502Z,36.43
2023-01-19T10:49:02.745Z,35.97
2023-01-19T10:51:29.782Z,25.53
2023-01-19T10:54:00.998Z,33.37
2023-01-19T10:56:31.962Z,33.13
2023-01-19T10:59:01.277Z,24.67
2023-01-19T11:01:28.601Z,27.73
2023-01-19T11:04:00.074Z,26.27
2023-01-19T11:06:28.808Z,32.67
2023-01-19T11:09:15.368Z,29.30
2023-01-19T11:11:48.585Z,22.60
2023-01-19T11:14:19.485Z,48.08
2023-01-19T11:16:49.031Z,23.83
2023-01-19T11:19:21.876Z,27.67
2023-01-19T11:21:48.788Z,31.20
2023-01-19T11:24:17.406Z,31.93
2023-01-19T11:26:48.060Z,22.00
2023-01-19T11:29:19.233Z,35.47
2023-01-19T11:31:46.310Z,29.47
2023-01-19T11:34:33.117Z,24.70
2023-01-19T11:37:02.018Z,25.93
2023-01-19T11:39:32.138Z,20.27
2023-01-19T11:42:02.393Z,25.77
2023-01-19T11:44:32.752Z,25.90
2023-01-19T11:47:01.001Z,32.03
2023-01-19T11:49:43.289Z,20.33
2023-01-19T11:52:19.310Z,26.63
2023-01-19T11:54:54.844Z,23.03
2023-01-19T11:57:22.296Z,20.07
2023-01-19T11:59:52.130Z,17.87
2023-01-19T12:02:27.081Z,30.90
2023-01-19T12:04:59.050Z,25.57
2023-01-19T12:07:30.540Z,17.57
2023-01-19T12:10:07.491Z,20.07
2023-01-19T12:12:38.336Z,14.67
2023-01-19T12:15:08.857Z,21.70
2023-01-19T12:17:40.569Z,26.37
2023-01-19T12:20:22.038Z,14.30
2023-01-19T12:22:55.282Z,17.67
2023-01-19T12:25:29.507Z,19.65
2023-01-19T12:27:57.624Z,16.47
2023-01-19T12:30:26.704Z,16.40
2023-01-19T12:33:21.741Z,15.83
2023-01-19T12:35:57.556Z,15.23
2023-01-19T12:38:40.191Z,13.10
2023-01-19T12:41:20.033Z,14.47
2023-01-19T12:43:47.848Z,17.00
2023-01-19T12:46:28.099Z,14.23
2023-01-19T12:49:04.401Z,15.97
2023-01-19T12:51:32.005Z,16.67
2023-01-19T12:54:01.983Z,16.87
2023-01-19T12:56:31.480Z,16.97
2023-01-19T12:58:59.053Z,22.70
2023-01-19T13:01:27.081Z,20.87
2023-01-19T13:04:07.588Z,18.83
2023-01-19T13:07:10.538Z,16.73
2023-01-19T13:09:39.461Z,15.57
2023-01-19T13:12:21.460Z,13.73
2023-01-19T13:14:50.735Z,13.83
2023-01-19T13:17:25.225Z,23.10
2023-01-19T13:20:06.054Z,23.07
2023-01-19T13:23:17.888Z,23.87
2023-01-19T13:25:51.670Z,15.57
2023-01-19T13:28:20.216Z,24.30
2023-01-19T13:30:56.572Z,30.27
2023-01-19T13:33:25.775Z,19.27
2023-01-19T13:35:56.861Z,18.57
2023-01-19T13:38:24.520Z,18.53
2023-01-19T13:40:53.465Z,22.07
2023-01-19T13:43:25.948Z,20.00
2023-01-19T13:45:53.901Z,12.67
2023-01-19T13:48:23.011Z,26.27
2023-01-19T13:50:59.808Z,13.60
2023-01-19T13:53:27.021Z,24.30
2023-01-19T13:56:16.130Z,22.95
2023-01-19T13:58:42.926Z,15.40
2023-01-19T14:01:21.744Z,15.13
2023-01-19T14:03:52.358Z,12.33
2023-01-19T14:06:33.048Z,16.20
2023-01-19T14:09:08.630Z,14.40
2023-01-19T14:11:35.541Z,15.90
2023-01-19T14:14:02.977Z,22.73
2023-01-19T14:16:29.951Z,13.87
2023-01-19T14:19:01.154Z,13.00
2023-01-19T14:21:39.478Z,17.37
2023-01-19T14:24:08.598Z,21.50
2023-01-19T14:26:45.559Z,15.57
2023-01-19T14:29:17.113Z,22.43
2023-01-19T14:31:45.636Z,19.60
2023-01-19T14:34:32.695Z,13.30
2023-01-19T14:37:02.691Z,22.13
2023-01-19T14:39:32.797Z,26.67
2023-01-19T14:42:03.243Z,14.73
2023-01-19T14:44:34.267Z,16.17
2023-01-19T14:47:01.817Z,14.50
2023-01-19T14:49:34.387Z,21.60
2023-01-19T14:52:06.382Z,12.90
2023-01-19T14:54:37.406Z,16.17
2023-01-19T14:57:04.947Z,16.93
2023-01-19T14:59:32.159Z,21.87
2023-01-19T15:01:59.956Z,12.17
2023-01-19T15:04:26.916Z,15.87
2023-01-19T15:06:56.124Z,16.67
2023-01-19T15:09:24.922Z,13.33
2023-01-19T15:11:52.671Z,20.57
2023-01-19T15:14:20.927Z,14.37
2023-01-19T15:16:49.074Z,19.07
2023-01-19T15:19:17.558Z,17.13
2023-01-19T15:21:46.443Z,21.70
2023-01-19T15:24:13.596Z,18.40
2023-01-19T15:26:43.343Z,19.73
2023-01-19T15:29:22.962Z,22.30
2023-01-19T15:31:50.393Z,17.70
2023-01-19T15:34:17.277Z,30.53
2023-01-19T15:36:44.401Z,20.83
2023-01-19T15:39:11.720Z,19.37
2023-01-19T15:41:39.802Z,16.20
2023-01-19T15:44:11.107Z,19.10
2023-01-19T15:46:38.265Z,25.87
2023-01-19T15:49:05.835Z,26.33
2023-01-19T15:51:33.204Z,26.47
2023-01-19T15:54:00.161Z,23.60
2023-01-19T15:56:29.269Z,22.77
2023-01-19T15:58:58.013Z,35.43
2023-01-19T16:01:32.333Z,14.77
2023-01-19T16:04:01.248Z,22.73
2023-01-19T16:06:28.788Z,6.77
2023-01-19T16:08:59.714Z,5.27
2023-01-19T16:11:27.224Z,9.97
2023-01-19T16:13:54.159Z,5.33
2023-01-19T16:16:23.785Z,7.77
2023-01-19T16:18:52.152Z,26.43
2023-01-19T16:21:19.356Z,12.33
2023-01-19T16:23:46.300Z,13.03
2023-01-19T16:26:28.644Z,10.27
2023-01-19T16:29:00.285Z,23.37
2023-01-19T16:31:27.497Z,24.70
2023-01-19T16:33:55.951Z,18.50
2023-01-19T16:36:25.405Z,25.60
2023-01-19T16:38:52.982Z,38.50
2023-01-19T16:41:20.507Z,58.87
2023-01-19T16:43:52.105Z,66.10
2023-01-19T16:46:21.988Z,105.20
2023-01-19T16:48:49.417Z,89.93
2023-01-19T16:51:18.149Z,47.93
2023-01-19T16:53:45.693Z,75.37
2023-01-19T16:56:14.576Z,118.17
2023-01-19T16:58:41.803Z,56.80
2023-01-19T17:01:11.241Z,36.30
2023-01-19T17:03:38.688Z,131.20
2023-01-19T17:06:06.519Z,87.70
2023-01-19T17:08:36.555Z,94.77
2023-01-19T17:11:09.669Z,50.40
2023-01-19T17:13:36.675Z,75.65
2023-01-19T17:16:05.732Z,99.57
2023-01-19T17:18:34.822Z,73.13
2023-01-19T17:21:02.539Z,49.53
2023-01-19T17:23:30.087Z,83.80
2023-01-19T17:25:59.298Z,69.97
2023-01-19T17:28:26.621Z,62.43
2023-01-19T17:30:53.980Z,51.70
2023-01-19T17:33:22.641Z,62.67
2023-01-19T17:35:49.553Z,72.43
2023-01-19T17:38:17.068Z,129.37
2023-01-19T17:40:43.964Z,94.80
2023-01-19T17:43:12.253Z,114.70
2023-01-19T17:45:39.357Z,85.13
2023-01-19T17:48:06.704Z,125.73
2023-01-19T17:50:34.736Z,77.53
2023-01-19T17:53:01.925Z,140.47
2023-01-19T17:55:28.907Z,86.23
2023-01-19T17:57:55.741Z,68.10
2023-01-19T18:00:24.545Z,90.70
2023-01-19T18:02:51.993Z,84.33
2023-01-19T18:05:19.667Z,77.67
2023-01-19T18:07:46.795Z,77.27
2023-01-19T18:10:14.389Z,95.50
2023-01-19T18:12:41.475Z,108.90
2023-01-19T18:15:09.811Z,109.33
2023-01-19T18:17:38.073Z,91.70
2023-01-19T18:20:06.050Z,90.27
2023-01-19T18:22:33.534Z,116.90
2023-01-19T18:25:01.699Z,102.53
2023-01-19T18:27:29.261Z,64.97
2023-01-19T18:29:56.465Z,92.77
2023-01-19T18:32:23.409Z,74.30
2023-01-19T18:34:54.022Z,65.00
2023-01-19T18:37:20.900Z,60.60
2023-01-19T18:39:47.882Z,65.83
2023-01-19T18:42:14.880Z,85.60
2023-01-19T18:44:41.809Z,61.30
2023-01-19T18:47:08.690Z,61.17
2023-01-19T18:49:35.613Z,77.97
2023-01-19T18:52:04.269Z,57.50
2023-01-19T18:54:31.243Z,74.73
2023-01-19T18:56:58.679Z,60.97
2023-01-19T18:59:25.581Z,54.40
2023-01-19T19:01:53.688Z,50.43
2023-01-19T19:04:20.662Z,63.53
2023-01-19T19:06:47.645Z,93.63
2023-01-19T19:09:15.813Z,62.70
2023-01-19T19:11:43.494Z,54.17
2023-01-19T19:14:10.414Z,44.73
2023-01-19T19:16:39.475Z,76.00
2023-01-19T19:19:07.313Z,47.47
2023-01-19T19:21:34.230Z,49.27
2023-01-19T19:24:01.251Z,55.77
2023-01-19T19:26:29.912Z,42.37
2023-01-19T19:28:57.012Z,51.87
2023-01-19T19:31:26.134Z,34.53
2023-01-19T19:33:54.386Z,44.87
2023-01-19T19:36:22.005Z,43.20
2023-01-19T19:38:49.352Z,59.30
2023-01-19T19:41:18.969Z,59.20
2023-01-19T19:43:47.469Z,28.60
2023-01-19T19:46:16.227Z,44.60
2023-01-19T19:48:43.413Z,33.53
2023-01-19T19:51:18.570Z,26.73
2023-01-19T19:53:46.088Z,32.03
2023-01-19T19:56:13.395Z,26.80
2023-01-19T19:58:42.155Z,18.87
2023-01-19T20:01:12.820Z,48.93
2023-01-19T20:03:40.486Z,55.77
2023-01-19T20:06:09.537Z,35.57
2023-01-19T20:08:36.819Z,36.37
2023-01-19T20:11:06.552Z,35.03
2023-01-19T20:13:34.575Z,13.63
2023-01-19T20:16:02.978Z,18.47
2023-01-19T20:18:32.474Z,12.00
2023-01-19T20:20:59.992Z,14.27
2023-01-19T20:23:26.980Z,19.70
2023-01-19T20:25:53.897Z,14.30
2023-01-19T20:28:20.690Z,7.67
2023-01-19T20:30:47.611Z,9.23
2023-01-19T20:33:14.539Z,7.23
2023-01-19T20:35:42.747Z,23.33
2023-01-19T20:38:09.684Z,45.67
2023-01-19T20:40:36.687Z,47.43
2023-01-19T20:43:03.535Z,23.00
2023-01-19T20:45:30.414Z,20.10
2023-01-19T20:47:57.222Z,62.63
2023-01-19T20:50:24.100Z,45.00
2023-01-19T20:52:52.457Z,14.27
2023-01-19T20:55:19.545Z,25.63
2023-01-19T20:57:46.422Z,8.37
2023-01-19T21:00:13.937Z,4.97
2023-01-19T21:02:40.896Z,10.00
2023-01-19T21:05:08.824Z,9.93
2023-01-19T21:07:35.721Z,10.23
2023-01-19T21:10:04.729Z,18.23
2023-01-19T21:12:31.673Z,22.33
2023-01-19T21:14:58.651Z,15.27
2023-01-19T21:17:25.560Z,17.77
2023-01-19T21:19:52.470Z,23.40
2023-01-19T21:22:19.293Z,71.13
2023-01-19T21:24:46.760Z,44.47
2023-01-19T21:27:14.987Z,70.50
2023-01-19T21:29:41.997Z,71.33
2023-01-19T21:32:08.880Z,72.90
2023-01-19T21:34:36.001Z,67.33
2023-01-19T21:37:02.784Z,84.90
2023-01-19T21:39:29.711Z,72.90
2023-01-19T21:41:56.532Z,77.57
2023-01-19T21:44:24.784Z,63.57
2023-01-19T21:46:51.725Z,70.13
2023-01-19T21:49:20.244Z,71.43
2023-01-19T21:51:48.136Z,69.50
2023-01-19T21:54:15.102Z,76.40
2023-01-19T21:56:43.404Z,76.60
2023-01-19T21:59:11.863Z,99.63
2023-01-19T22:01:40.804Z,86.17
2023-01-19T22:04:07.872Z,62.90
2023-01-19T22:06:34.763Z,96.63
2023-01-19T22:09:01.684Z,78.03
2023-01-19T22:11:29.089Z,80.87
2023-01-19T22:13:56.181Z,70.70
2023-01-19T22:16:23.565Z,66.00
2023-01-19T22:18:54.173Z,52.07
2023-01-19T22:21:22.889Z,59.83
2023-01-19T22:23:50.611Z,58.93
2023-01-19T22:26:18.202Z,59.10
2023-01-19T22:28:45.341Z,72.53
2023-01-19T22:31:14.204Z,62.67
2023-01-19T22:33:41.630Z,68.07
2023-01-19T22:36:15.472Z,58.10
2023-01-19T22:41:14.607Z,72.83
2023-01-19T22:43:41.525Z,67.67
2023-01-19T22:46:08.866Z,69.17
2023-01-19T22:48:36.295Z,73.47
2023-01-19T22:51:03.553Z,81.53
2023-01-19T22:53:32.633Z,105.03
2023-01-19T22:55:59.552Z,74.60
2023-01-19T22:58:26.503Z,84.70
2023-01-19T23:00:53.435Z,73.33
2023-01-19T23:03:20.404Z,100.50
2023-01-19T23:05:47.283Z,85.03
2023-01-19T23:08:14.216Z,85.07
2023-01-19T23:10:42.615Z,88.83
2023-01-19T23:13:09.470Z,100.60
2023-01-19T23:15:36.345Z,67.93
2023-01-19T23:18:03.303Z,70.40
2023-01-19T23:20:30.203Z,84.67
2023-01-19T23:22:59.456Z,67.70
2023-01-19T23:25:26.352Z,76.27
2023-01-19T23:27:54.626Z,62.50
2023-01-19T23:30:21.515Z,64.20
2023-01-19T23:32:49.415Z,68.90
2023-01-19T23:35:16.630Z,60.87
2023-01-19T23:37:43.611Z,89.37
2023-01-19T23:40:11.758Z,107.03
2023-01-19T23:42:38.661Z,150.63
2023-01-19T23:45:08.736Z,119.87
2023-01-19T23:47:36.463Z,63.13
2023-01-19T23:50:04.191Z,84.50
2023-01-19T23:52:31.572Z,51.17
2023-01-19T23:54:58.478Z,60.13
2023-01-19T23:57:25.440Z,54.10
2023-01-19T23:59:52.441Z,53.77
